Time;durP1;ratioP1;P1;durP2;ratioP2;P2;SDS_P1;SDS_P2;PMS_P1;PMS_P2;Temp;Humidity;BMP_temperature;BMP_pressure;BME280_temperature;BME280_humidity;BME280_pressure;Samples;Min_cycle;Max_cycle;Signal;HPM_P1;HPM_P2
2022/12/12 00:02:03;;;;;;;21.13;14.70;;;2.60;91.60;;;;;;904682;156;27360;-80
2022/12/12 00:04:29;;;;;;;19.93;13.97;;;2.70;91.70;;;;;;906841;155;27428;-80
2022/12/12 00:06:56;;;;;;;18.67;14.30;;;2.70;91.70;;;;;;890157;158;27390;-80
2022/12/12 00:09:23;;;;;;;22.03;14.33;;;2.70;91.80;;;;;;898863;157;27548;-80
2022/12/12 00:11:49;;;;;;;20.00;14.57;;;2.70;91.80;;;;;;904655;156;27552;-80
2022/12/12 00:14:16;;;;;;;19.30;13.80;;;2.70;91.70;;;;;;905563;156;27389;-80
2022/12/12 00:16:42;;;;;;;19.43;14.03;;;2.80;91.80;;;;;;904279;156;27406;-80
2022/12/12 00:19:09;;;;;;;21.47;14.53;;;2.80;91.80;;;;;;905662;156;27401;-80
2022/12/12 00:21:35;;;;;;;18.43;13.90;;;2.80;91.80;;;;;;905240;156;27424;-80
2022/12/12 00:24:02;;;;;;;20.20;14.27;;;2.90;91.90;;;;;;898535;157;27453;-80
2022/12/12 00:26:29;;;;;;;20.33;14.50;;;2.90;91.80;;;;;;896373;159;27390;-80
2022/12/12 00:28:55;;;;;;;18.87;13.73;;;2.90;91.80;;;;;;896137;159;27448;-80
2022/12/12 00:31:22;;;;;;;18.87;13.13;;;3.00;91.80;;;;;;895851;158;27355;-80
2022/12/12 00:33:49;;;;;;;20.10;14.17;;;3.00;91.80;;;;;;896012;158;27370;-80
2022/12/12 00:36:18;;;;;;;19.10;14.23;;;3.00;91.80;;;;;;896153;158;27441;-80
2022/12/12 00:38:45;;;;;;;18.77;13.60;;;3.00;91.70;;;;;;896363;159;27407;-80
2022/12/12 00:41:11;;;;;;;19.20;13.03;;;3.10;91.70;;;;;;896140;158;27398;-80
2022/12/12 00:43:38;;;;;;;21.33;14.13;;;3.10;91.70;;;;;;896338;157;27433;-80
2022/12/12 00:46:04;;;;;;;19.33;14.50;;;3.10;91.70;;;;;;896525;159;27475;-80
2022/12/12 00:48:31;;;;;;;20.20;13.63;;;3.20;91.60;;;;;;896069;157;27422;-80
2022/12/12 00:50:58;;;;;;;21.13;13.60;;;3.10;91.50;;;;;;895609;158;27524;-80
2022/12/12 00:53:24;;;;;;;21.20;14.73;;;3.20;91.50;;;;;;895441;157;27398;-80
2022/12/12 00:55:56;;;;;;;23.03;15.53;;;3.20;91.50;;;;;;896075;159;27932;-80
2022/12/12 00:58:23;;;;;;;20.07;14.57;;;3.20;91.40;;;;;;896293;157;27339;-80
2022/12/12 01:00:50;;;;;;;20.20;15.10;;;3.30;91.40;;;;;;896473;157;27425;-80
2022/12/12 01:03:16;;;;;;;22.10;15.30;;;3.30;91.40;;;;;;895755;157;27514;-80
2022/12/12 01:05:43;;;;;;;20.77;15.47;;;3.30;91.40;;;;;;895661;159;27449;-80
2022/12/12 01:08:09;;;;;;;22.87;15.20;;;3.30;91.30;;;;;;896494;157;27531;-80
2022/12/12 01:10:36;;;;;;;18.47;14.20;;;3.30;91.20;;;;;;895700;159;27402;-80
2022/12/12 01:13:02;;;;;;;20.17;15.07;;;3.30;91.10;;;;;;895858;157;28160;-80
2022/12/12 01:15:29;;;;;;;19.37;13.40;;;3.30;91.10;;;;;;895983;159;27410;-80
2022/12/12 01:17:56;;;;;;;20.50;14.43;;;3.30;91.10;;;;;;896365;157;27468;-80
2022/12/12 01:20:22;;;;;;;18.43;13.70;;;3.30;91.10;;;;;;895644;157;27430;-80
2022/12/12 01:22:49;;;;;;;18.90;13.90;;;3.30;91.10;;;;;;914555;154;27367;-80
2022/12/12 01:25:15;;;;;;;18.40;13.60;;;3.30;91.10;;;;;;923446;152;27499;-80
2022/12/12 01:27:42;;;;;;;18.93;13.47;;;3.20;91.20;;;;;;923541;152;27490;-80
2022/12/12 01:30:09;;;;;;;20.37;13.57;;;3.30;91.20;;;;;;923126;152;27508;-81
2022/12/12 01:32:35;;;;;;;19.90;14.13;;;3.30;91.30;;;;;;923056;152;27377;-80
2022/12/12 01:35:06;;;;;;;16.80;13.13;;;3.30;91.30;;;;;;923710;152;27396;-80
2022/12/12 01:37:28;;;;;;;19.60;13.47;;;3.30;91.40;;;;;;922867;152;27441;-80
2022/12/12 01:39:55;;;;;;;20.80;13.97;;;3.30;91.50;;;;;;923669;152;27400;-80
2022/12/12 01:42:21;;;;;;;18.07;14.03;;;3.30;91.50;;;;;;923548;152;27394;-80
2022/12/12 01:44:48;;;;;;;17.73;13.87;;;3.30;91.50;;;;;;923383;152;27326;-80
2022/12/12 01:47:15;;;;;;;20.00;14.63;;;3.30;91.40;;;;;;922823;152;27806;-80
2022/12/12 01:49:41;;;;;;;19.47;14.67;;;3.40;91.40;;;;;;905452;155;27380;-80
2022/12/12 01:52:11;;;;;;;20.37;14.33;;;3.40;91.40;;;;;;904648;156;27395;-80
2022/12/12 01:54:40;;;;;;;19.37;13.37;;;3.40;91.30;;;;;;905125;155;27436;-80
2022/12/12 01:57:07;;;;;;;20.20;14.90;;;3.30;91.30;;;;;;905604;155;27337;-80
2022/12/12 01:59:34;;;;;;;18.00;12.67;;;3.30;91.20;;;;;;904898;155;27379;-80
2022/12/12 02:02:00;;;;;;;19.07;14.30;;;3.30;91.20;;;;;;905165;155;27467;-80
2022/12/12 02:04:30;;;;;;;20.13;14.53;;;3.30;91.30;;;;;;905352;155;27536;-80
2022/12/12 02:06:56;;;;;;;20.90;14.67;;;3.30;91.30;;;;;;905235;155;27416;-80
2022/12/12 02:09:23;;;;;;;18.87;14.23;;;3.20;91.30;;;;;;905248;155;27372;-80
2022/12/12 02:11:49;;;;;;;20.10;14.07;;;3.20;91.40;;;;;;904643;155;27400;-80
2022/12/12 02:14:16;;;;;;;18.70;14.40;;;3.30;91.50;;;;;;904678;155;27466;-80
2022/12/12 02:16:43;;;;;;;20.53;14.63;;;3.30;91.40;;;;;;904923;155;27499;-80
2022/12/12 02:19:34;;;;;;;20.03;15.13;;;3.20;91.40;;;;;;905072;155;27761;-80
2022/12/12 02:22:00;;;;;;;20.97;14.30;;;3.20;91.30;;;;;;904682;155;27428;-80
2022/12/12 02:24:33;;;;;;;20.00;13.47;;;3.20;91.30;;;;;;885667;155;27413;-80
2022/12/12 02:27:30;;;;;;;21.27;14.23;;;3.20;91.40;;;;;;888319;159;27402;-80
2022/12/12 02:29:57;;;;;;;18.43;13.27;;;3.20;91.40;;;;;;888682;159;27491;-79
2022/12/12 02:32:26;;;;;;;18.03;12.87;;;3.20;91.50;;;;;;887265;158;27337;-79
2022/12/12 02:35:11;;;;;;;21.90;14.17;;;3.10;91.50;;;;;;887802;158;27487;-79
2022/12/12 02:38:04;;;;;;;17.30;13.27;;;3.10;91.60;;;;;;889033;158;27448;-79
2022/12/12 02:40:46;;;;;;;20.47;14.00;;;3.10;91.70;;;;;;889314;159;27405;-79
2022/12/12 02:43:34;;;;;;;20.87;14.47;;;3.10;91.70;;;;;;884265;159;27383;-79
2022/12/12 02:46:00;;;;;;;18.60;13.27;;;3.10;91.70;;;;;;889416;158;27480;-79
2022/12/12 02:48:33;;;;;;;17.77;12.90;;;3.10;91.70;;;;;;888197;160;27501;-79
2022/12/12 02:51:00;;;;;;;19.03;12.70;;;3.10;91.70;;;;;;887613;159;27425;-79
2022/12/12 02:53:26;;;;;;;19.40;14.57;;;3.10;91.80;;;;;;888496;160;27503;-79
2022/12/12 02:56:02;;;;;;;17.27;13.10;;;3.10;91.90;;;;;;888587;159;27491;-79
2022/12/12 02:58:28;;;;;;;17.30;12.73;;;3.10;91.90;;;;;;887681;158;27480;-79
2022/12/12 03:00:55;;;;;;;17.70;13.80;;;3.20;91.90;;;;;;888337;158;27523;-79
2022/12/12 03:09:36;;;;;;;18.40;12.53;;;3.20;92.00;;;;;;888197;160;27457;-82
2022/12/12 03:12:11;;;;;;;19.30;13.27;;;3.10;91.90;;;;;;870745;161;27479;-79
2022/12/12 03:14:52;;;;;;;18.83;13.20;;;3.20;91.90;;;;;;882822;159;27397;-79
2022/12/12 03:17:25;;;;;;;21.57;14.63;;;3.20;91.90;;;;;;888603;159;27429;-79
2022/12/12 03:20:19;;;;;;;18.73;13.63;;;3.20;91.90;;;;;;888484;158;27433;-80
2022/12/12 03:22:48;;;;;;;17.40;12.50;;;3.20;92.00;;;;;;888338;160;27442;-79
2022/12/12 03:25:18;;;;;;;20.80;14.57;;;3.10;91.90;;;;;;890438;158;27374;-79
2022/12/12 03:27:45;;;;;;;19.97;13.63;;;3.10;92.30;;;;;;915001;154;27380;-79
2022/12/12 03:30:12;;;;;;;20.63;13.67;;;3.10;92.00;;;;;;911233;154;27304;-79
2022/12/12 03:32:41;;;;;;;17.77;12.53;;;3.10;92.10;;;;;;914569;154;27524;-78
2022/12/12 03:35:13;;;;;;;21.10;13.40;;;3.10;92.10;;;;;;891430;159;27526;-79
2022/12/12 03:37:46;;;;;;;19.47;13.80;;;3.10;92.20;;;;;;874019;161;27520;-79
2022/12/12 03:40:13;;;;;;;18.37;13.37;;;3.20;92.20;;;;;;883561;159;27372;-79
2022/12/12 03:42:54;;;;;;;20.90;14.23;;;3.20;92.20;;;;;;913638;156;27347;-79
2022/12/12 03:45:23;;;;;;;19.30;13.67;;;3.10;92.30;;;;;;915150;156;27411;-80
2022/12/12 03:47:56;;;;;;;20.00;14.30;;;3.20;92.30;;;;;;915231;156;28131;-80
2022/12/12 03:50:23;;;;;;;18.07;13.97;;;3.20;92.30;;;;;;914800;155;27372;-80
2022/12/12 03:53:08;;;;;;;17.93;12.97;;;3.20;92.30;;;;;;915192;154;27460;-80
2022/12/12 03:55:37;;;;;;;16.93;13.07;;;3.20;92.50;;;;;;915740;154;27340;-80
2022/12/12 03:58:15;;;;;;;17.20;13.70;;;3.20;92.50;;;;;;915504;156;27367;-81
2022/12/12 04:00:42;;;;;;;18.17;14.20;;;3.20;92.50;;;;;;892878;158;27530;-81
2022/12/12 04:03:14;;;;;;;18.93;13.43;;;3.20;92.50;;;;;;895650;158;27355;-81
2022/12/12 04:08:31;;;;;;;22.07;14.27;;;3.30;92.70;;;;;;896503;159;27429;-80
2022/12/12 04:13:42;;;;;;;18.63;13.67;;;3.30;92.70;;;;;;895928;157;28523;-81
2022/12/12 04:16:12;;;;;;;17.93;13.20;;;3.40;92.70;;;;;;894825;157;27537;-81
2022/12/12 04:18:50;;;;;;;20.27;13.10;;;3.40;92.70;;;;;;915159;156;27414;-81
2022/12/12 04:24:23;;;;;;;20.57;14.60;;;3.40;92.70;;;;;;915908;156;27343;-82
2022/12/12 04:26:52;;;;;;;18.70;13.33;;;3.40;92.70;;;;;;919169;153;28997;-82
2022/12/12 04:29:18;;;;;;;20.00;14.87;;;3.40;92.60;;;;;;919872;153;27310;-82
2022/12/12 04:31:59;;;;;;;18.07;13.17;;;3.50;92.70;;;;;;920892;153;27350;-82
2022/12/12 04:34:35;;;;;;;18.80;13.77;;;3.50;92.60;;;;;;919636;153;27393;-81
2022/12/12 04:37:02;;;;;;;20.83;13.67;;;3.50;92.60;;;;;;920206;154;27382;-81
2022/12/12 04:39:28;;;;;;;20.67;14.10;;;3.50;92.90;;;;;;920199;153;27311;-81
2022/12/12 04:41:56;;;;;;;21.17;13.97;;;3.50;92.60;;;;;;920499;153;27308;-81
2022/12/12 04:44:22;;;;;;;20.43;13.87;;;3.50;92.60;;;;;;920222;153;27856;-81
2022/12/12 04:46:48;;;;;;;24.33;14.97;;;3.50;92.70;;;;;;921020;153;27505;-81
2022/12/12 04:49:15;;;;;;;21.33;14.93;;;3.50;92.80;;;;;;920216;153;27564;-81
2022/12/12 04:51:41;;;;;;;19.57;14.13;;;3.60;92.80;;;;;;920342;153;27370;-81
2022/12/12 04:54:14;;;;;;;21.53;15.37;;;3.60;92.80;;;;;;920461;153;27406;-81
2022/12/12 04:56:40;;;;;;;19.97;14.47;;;3.60;92.80;;;;;;919580;153;27342;-81
2022/12/12 04:59:07;;;;;;;20.00;13.80;;;3.60;92.70;;;;;;920690;153;27422;-81
2022/12/12 05:01:33;;;;;;;21.20;14.80;;;3.60;92.70;;;;;;920521;153;27380;-81
2022/12/12 05:04:03;;;;;;;21.77;15.17;;;3.70;92.70;;;;;;920000;153;27371;-81
2022/12/12 05:06:38;;;;;;;20.43;14.27;;;3.70;92.70;;;;;;919595;153;27432;-81
2022/12/12 05:09:05;;;;;;;21.60;14.67;;;3.70;92.70;;;;;;919002;153;27405;-81
2022/12/12 05:11:31;;;;;;;22.07;14.23;;;3.70;92.60;;;;;;921023;153;27490;-81
2022/12/12 05:13:58;;;;;;;20.43;14.47;;;3.70;92.60;;;;;;920726;153;27551;-81
2022/12/12 05:16:25;;;;;;;20.93;14.83;;;3.70;92.60;;;;;;920633;153;27370;-81
2022/12/12 05:18:51;;;;;;;19.90;14.27;;;3.80;92.60;;;;;;920144;154;27417;-81
2022/12/12 05:21:18;;;;;;;19.83;14.57;;;3.70;92.50;;;;;;920123;153;27448;-81
2022/12/12 05:23:44;;;;;;;20.73;13.67;;;3.80;92.60;;;;;;920939;154;27490;-81
2022/12/12 05:26:23;;;;;;;25.07;15.60;;;3.80;92.60;;;;;;920841;153;27525;-81
2022/12/12 05:28:49;;;;;;;17.70;13.87;;;3.80;92.60;;;;;;920107;153;27381;-81
2022/12/12 05:31:16;;;;;;;20.37;14.47;;;3.80;92.60;;;;;;920395;153;27399;-81
2022/12/12 05:33:43;;;;;;;23.90;16.77;;;3.80;92.70;;;;;;920543;153;27334;-81
2022/12/12 05:36:09;;;;;;;21.17;15.87;;;3.90;92.70;;;;;;920656;153;27810;-80
2022/12/12 05:38:36;;;;;;;20.23;14.07;;;3.90;92.60;;;;;;920236;153;27516;-81
2022/12/12 05:41:02;;;;;;;21.23;16.20;;;3.80;92.60;;;;;;920213;153;27320;-81
2022/12/12 05:43:29;;;;;;;21.53;14.37;;;3.90;92.50;;;;;;920713;153;27375;-81
2022/12/12 05:45:56;;;;;;;24.47;16.17;;;3.90;92.50;;;;;;921017;153;27350;-81
2022/12/12 05:48:22;;;;;;;25.30;16.07;;;3.90;92.50;;;;;;920760;153;27343;-81
2022/12/12 05:50:49;;;;;;;24.23;16.70;;;3.90;92.50;;;;;;906835;156;27501;-81
2022/12/12 05:53:15;;;;;;;23.17;16.17;;;3.90;92.50;;;;;;903778;156;27495;-81
2022/12/12 05:55:42;;;;;;;23.03;16.50;;;3.90;92.60;;;;;;903653;156;27470;-81
2022/12/12 05:58:08;;;;;;;21.27;15.07;;;3.90;92.60;;;;;;904337;156;27444;-81
2022/12/12 06:00:35;;;;;;;21.97;15.77;;;3.90;92.60;;;;;;904107;156;27402;-81
2022/12/12 06:03:02;;;;;;;23.40;15.90;;;3.90;92.60;;;;;;904066;155;27494;-81
2022/12/12 06:05:28;;;;;;;23.17;16.40;;;3.90;92.60;;;;;;904127;156;27455;-81
2022/12/12 06:07:55;;;;;;;27.13;17.30;;;3.90;92.50;;;;;;904565;156;27366;-81
2022/12/12 06:10:21;;;;;;;26.47;16.37;;;3.90;92.30;;;;;;903685;156;27978;-81
2022/12/12 06:12:48;;;;;;;24.97;16.63;;;3.90;92.30;;;;;;904794;156;27377;-81
2022/12/12 06:15:15;;;;;;;25.03;16.00;;;3.90;92.20;;;;;;904465;156;27548;-81
2022/12/12 06:17:41;;;;;;;19.60;13.93;;;3.90;92.10;;;;;;903840;156;27418;-81
2022/12/12 06:20:08;;;;;;;21.70;15.00;;;3.80;91.90;;;;;;903625;156;27404;-81
2022/12/12 06:22:35;;;;;;;23.17;15.57;;;3.80;92.00;;;;;;920716;154;27372;-81
2022/12/12 06:25:01;;;;;;;23.93;15.97;;;3.80;92.10;;;;;;920761;153;27465;-81
2022/12/12 06:27:28;;;;;;;24.27;15.83;;;3.70;92.10;;;;;;921679;152;27940;-81
2022/12/12 06:29:54;;;;;;;29.40;17.53;;;3.70;92.10;;;;;;923693;152;27417;-81
2022/12/12 06:32:21;;;;;;;24.40;16.20;;;3.70;92.10;;;;;;904929;155;27577;-81
2022/12/12 06:34:47;;;;;;;21.40;15.30;;;3.60;91.90;;;;;;906081;155;27411;-81
2022/12/12 06:37:14;;;;;;;24.47;16.70;;;3.60;91.90;;;;;;905203;155;27420;-81
2022/12/12 06:39:40;;;;;;;27.77;18.07;;;3.50;92.00;;;;;;905960;155;27396;-81
2022/12/12 06:42:07;;;;;;;26.30;16.87;;;3.50;92.00;;;;;;904787;155;27427;-81
2022/12/12 06:44:34;;;;;;;20.77;15.70;;;3.50;92.00;;;;;;905707;155;27479;-81
2022/12/12 06:47:00;;;;;;;23.53;15.63;;;3.40;92.00;;;;;;905290;155;27342;-81
2022/12/12 06:49:27;;;;;;;21.63;14.87;;;3.40;92.20;;;;;;905283;155;27389;-81
2022/12/12 06:51:53;;;;;;;19.83;14.87;;;3.30;92.40;;;;;;905780;155;27434;-81
2022/12/12 06:54:20;;;;;;;22.97;15.43;;;3.30;92.70;;;;;;905240;155;27381;-81
2022/12/12 06:56:47;;;;;;;21.50;15.47;;;3.30;92.90;;;;;;905951;155;28152;-81
2022/12/12 06:59:14;;;;;;;24.43;16.23;;;3.30;93.00;;;;;;905546;155;27420;-81
2022/12/12 07:01:40;;;;;;;26.70;15.40;;;3.30;93.10;;;;;;905528;155;27454;-81
2022/12/12 07:04:06;;;;;;;20.30;15.43;;;3.40;93.20;;;;;;905874;155;27407;-81
2022/12/12 07:06:33;;;;;;;25.97;16.30;;;3.40;93.30;;;;;;905529;155;27421;-81
2022/12/12 07:09:00;;;;;;;23.93;15.17;;;3.40;93.40;;;;;;905923;155;27488;-81
2022/12/12 07:11:26;;;;;;;25.40;15.40;;;3.40;93.40;;;;;;904908;155;27369;-81
2022/12/12 07:13:53;;;;;;;21.33;15.40;;;3.40;93.50;;;;;;905406;155;27373;-81
2022/12/12 07:16:19;;;;;;;21.87;15.47;;;3.50;93.60;;;;;;905094;155;27418;-81
2022/12/12 07:18:46;;;;;;;22.10;15.50;;;3.50;93.60;;;;;;905414;155;27871;-81
2022/12/12 07:21:12;;;;;;;22.33;15.60;;;3.50;93.60;;;;;;905107;155;27437;-81
2022/12/12 07:23:39;;;;;;;24.53;15.07;;;3.60;93.70;;;;;;905196;155;27427;-81
2022/12/12 07:26:06;;;;;;;22.57;15.33;;;3.60;93.70;;;;;;905830;155;27546;-81
2022/12/12 07:28:32;;;;;;;23.63;15.33;;;3.60;93.80;;;;;;896449;155;27413;-81
2022/12/12 07:31:00;;;;;;;24.97;16.87;;;3.70;93.90;;;;;;888011;158;27464;-81
2022/12/12 07:33:25;;;;;;;22.50;15.77;;;3.70;93.80;;;;;;888474;158;27452;-81
2022/12/12 07:35:52;;;;;;;24.33;16.47;;;3.70;93.70;;;;;;888877;160;27523;-81
2022/12/12 07:38:19;;;;;;;24.30;16.33;;;3.80;93.70;;;;;;888100;160;27366;-81
2022/12/12 07:40:45;;;;;;;27.17;18.40;;;3.80;93.60;;;;;;888435;159;27357;-81
2022/12/12 07:43:12;;;;;;;26.27;17.30;;;3.80;93.50;;;;;;889246;158;27371;-81
2022/12/12 07:45:38;;;;;;;23.63;16.33;;;3.90;93.40;;;;;;888981;159;27931;-81
2022/12/12 07:48:05;;;;;;;23.00;16.47;;;3.90;93.30;;;;;;888544;159;27445;-81
2022/12/12 07:50:32;;;;;;;23.67;16.60;;;3.90;93.20;;;;;;889214;158;27373;-81
2022/12/12 07:52:58;;;;;;;24.30;17.43;;;3.90;93.30;;;;;;888159;159;27441;-81
2022/12/12 07:55:25;;;;;;;24.37;16.50;;;3.90;93.30;;;;;;888519;159;27382;-81
2022/12/12 07:57:52;;;;;;;25.13;17.90;;;3.90;93.40;;;;;;888661;159;27444;-81
2022/12/12 08:00:18;;;;;;;26.03;18.80;;;3.90;93.50;;;;;;888511;159;27505;-81
2022/12/12 08:02:45;;;;;;;26.50;17.57;;;3.90;93.40;;;;;;888440;160;27492;-81
2022/12/12 08:05:11;;;;;;;24.03;16.67;;;3.90;93.50;;;;;;888388;158;27495;-81
2022/12/12 08:07:38;;;;;;;24.40;17.37;;;3.90;93.60;;;;;;888637;160;27319;-81
2022/12/12 08:10:05;;;;;;;25.47;16.83;;;3.90;93.60;;;;;;888790;159;27487;-81
2022/12/12 08:12:31;;;;;;;21.17;15.20;;;4.00;93.70;;;;;;888367;159;27388;-81
2022/12/12 08:14:58;;;;;;;23.20;15.80;;;4.00;93.70;;;;;;888991;160;27924;-81
2022/12/12 08:17:24;;;;;;;23.90;16.63;;;4.00;93.70;;;;;;888047;159;27515;-81
2022/12/12 08:19:51;;;;;;;23.70;16.53;;;4.10;93.70;;;;;;888659;158;27912;-81
2022/12/12 08:22:18;;;;;;;24.20;16.60;;;4.10;93.70;;;;;;887592;159;27444;-81
2022/12/12 08:24:44;;;;;;;21.63;15.50;;;4.10;93.60;;;;;;888891;160;27480;-81
2022/12/12 08:27:11;;;;;;;25.83;17.40;;;4.10;93.60;;;;;;888068;158;27425;-80
2022/12/12 08:29:37;;;;;;;26.30;17.17;;;4.10;93.60;;;;;;895024;158;27448;-80
2022/12/12 08:32:04;;;;;;;20.90;15.87;;;4.20;93.60;;;;;;895810;158;27491;-80
2022/12/12 08:34:30;;;;;;;21.23;15.10;;;4.10;93.50;;;;;;896177;158;27368;-81
2022/12/12 08:36:58;;;;;;;26.20;16.27;;;4.20;93.60;;;;;;896527;157;27404;-80
2022/12/12 08:39:24;;;;;;;23.23;16.17;;;4.20;93.60;;;;;;896620;158;27456;-80
2022/12/12 08:41:50;;;;;;;21.60;15.57;;;4.20;93.50;;;;;;894964;157;27987;-80
2022/12/12 08:44:17;;;;;;;23.60;16.07;;;4.20;93.50;;;;;;895074;157;27491;-80
2022/12/12 08:46:43;;;;;;;23.60;15.93;;;4.20;93.40;;;;;;895049;157;27414;-80
2022/12/12 08:49:10;;;;;;;23.63;16.03;;;4.20;93.30;;;;;;895261;157;27468;-80
2022/12/12 08:51:39;;;;;;;23.60;17.27;;;4.30;93.30;;;;;;895326;157;27378;-80
2022/12/12 08:54:06;;;;;;;22.53;16.10;;;4.30;93.20;;;;;;894187;157;27434;-80
2022/12/12 08:56:33;;;;;;;23.40;16.53;;;4.30;93.20;;;;;;914865;154;27464;-81
2022/12/12 08:58:59;;;;;;;24.80;18.40;;;4.30;93.20;;;;;;892394;159;27454;-80
2022/12/12 09:01:26;;;;;;;21.77;16.53;;;4.30;93.10;;;;;;895700;157;27412;-80
2022/12/12 09:03:52;;;;;;;21.80;15.17;;;4.30;93.00;;;;;;895530;157;27961;-82
2022/12/12 09:06:19;;;;;;;26.00;16.97;;;4.30;93.10;;;;;;896140;159;27503;-80
2022/12/12 09:08:46;;;;;;;22.67;16.50;;;4.30;93.10;;;;;;896461;157;27477;-80
2022/12/12 09:11:12;;;;;;;24.60;16.30;;;4.30;93.10;;;;;;895932;159;27401;-80
2022/12/12 09:13:39;;;;;;;26.10;17.53;;;4.30;93.20;;;;;;895785;158;27496;-80
2022/12/12 09:16:05;;;;;;;26.00;16.63;;;4.30;93.30;;;;;;895992;159;27542;-80
2022/12/12 09:18:32;;;;;;;20.33;15.70;;;4.30;93.40;;;;;;895614;157;27465;-81
2022/12/12 09:20:59;;;;;;;20.80;15.53;;;4.30;93.40;;;;;;895626;157;28114;-80
2022/12/12 09:23:25;;;;;;;22.83;15.93;;;4.40;93.40;;;;;;896016;157;27510;-80
2022/12/12 09:25:52;;;;;;;21.77;15.00;;;4.40;93.40;;;;;;896074;157;27464;-81
2022/12/12 09:28:18;;;;;;;27.60;16.43;;;4.40;93.30;;;;;;895553;157;27327;-81
2022/12/12 09:30:45;;;;;;;25.97;17.00;;;4.50;93.20;;;;;;895227;157;27402;-81
2022/12/12 09:33:12;;;;;;;24.30;16.63;;;4.50;93.30;;;;;;895630;158;27508;-80
2022/12/12 09:35:38;;;;;;;24.20;16.20;;;4.50;93.30;;;;;;896594;157;27426;-81
2022/12/12 09:38:05;;;;;;;22.90;15.97;;;4.60;93.30;;;;;;895942;157;27341;-81
2022/12/12 09:40:31;;;;;;;25.10;16.87;;;4.60;93.30;;;;;;896034;158;27398;-80
2022/12/12 09:42:58;;;;;;;24.03;16.63;;;4.60;93.40;;;;;;894902;158;27469;-80
2022/12/12 09:45:24;;;;;;;26.47;17.07;;;4.70;93.50;;;;;;895508;159;27350;-81
2022/12/12 09:47:51;;;;;;;22.97;16.93;;;4.70;93.50;;;;;;896278;159;27450;-81
2022/12/12 09:50:30;;;;;;;24.13;17.00;;;4.80;93.60;;;;;;895021;159;27488;-81
2022/12/12 09:52:56;;;;;;;22.77;16.47;;;4.80;93.40;;;;;;891652;158;27402;-81
2022/12/12 09:55:25;;;;;;;22.67;16.43;;;4.90;93.30;;;;;;895283;157;27379;-81
2022/12/12 09:58:01;;;;;;;25.53;18.67;;;4.90;93.20;;;;;;895496;157;27515;-81
2022/12/12 10:00:28;;;;;;;24.33;17.23;;;4.90;93.00;;;;;;895678;157;27955;-81
2022/12/12 10:03:15;;;;;;;29.37;16.10;;;5.00;92.80;;;;;;895754;157;27394;-81
2022/12/12 10:05:42;;;;;;;22.87;16.20;;;5.00;92.70;;;;;;895341;157;27494;-81
2022/12/12 10:08:38;;;;;;;22.80;15.70;;;5.00;92.60;;;;;;894628;157;27406;-81
2022/12/12 10:11:06;;;;;;;21.97;14.73;;;5.00;92.80;;;;;;867466;159;27429;-81
2022/12/12 10:13:32;;;;;;;22.53;16.53;;;5.00;92.90;;;;;;894337;158;27450;-81
2022/12/12 10:16:10;;;;;;;24.93;16.73;;;5.10;93.10;;;;;;895667;158;27555;-81
2022/12/12 10:18:36;;;;;;;21.73;15.53;;;5.10;93.10;;;;;;913029;154;27402;-81
2022/12/12 10:21:03;;;;;;;23.63;15.60;;;5.20;93.10;;;;;;913588;154;27371;-81
2022/12/12 10:23:35;;;;;;;19.70;15.00;;;5.20;93.00;;;;;;891923;159;27513;-81
2022/12/12 10:26:02;;;;;;;20.80;15.07;;;5.30;92.90;;;;;;895169;158;27460;-81
2022/12/12 10:28:28;;;;;;;23.37;15.93;;;5.30;92.80;;;;;;895782;158;27378;-81
2022/12/12 10:31:13;;;;;;;26.03;17.13;;;5.40;92.70;;;;;;899598;156;27975;-81
2022/12/12 10:34:04;;;;;;;23.63;15.77;;;5.40;92.60;;;;;;901263;156;27341;-81
2022/12/12 10:36:42;;;;;;;22.90;16.17;;;5.50;92.40;;;;;;901037;156;27409;-81
2022/12/12 10:39:12;;;;;;;24.37;17.93;;;5.50;92.30;;;;;;900627;156;27528;-81
2022/12/12 10:41:47;;;;;;;26.30;19.03;;;5.50;92.10;;;;;;899832;156;27346;-81
2022/12/12 10:44:36;;;;;;;21.17;15.77;;;5.50;92.10;;;;;;901585;156;27369;-81
2022/12/12 10:47:02;;;;;;;24.30;17.17;;;5.50;92.20;;;;;;900262;156;27382;-81
2022/12/12 10:49:29;;;;;;;22.40;17.00;;;5.60;92.20;;;;;;900953;156;27412;-81
2022/12/12 10:51:55;;;;;;;22.33;16.47;;;5.60;92.00;;;;;;901075;156;27431;-81
2022/12/12 10:54:22;;;;;;;22.73;15.73;;;5.60;91.80;;;;;;901307;156;27429;-81
2022/12/12 10:57:04;;;;;;;23.57;16.47;;;5.70;91.70;;;;;;900943;156;27969;-81
2022/12/12 10:59:30;;;;;;;23.30;16.17;;;5.70;91.50;;;;;;898208;156;27966;-81
2022/12/12 11:01:57;;;;;;;23.47;16.93;;;5.70;91.30;;;;;;901085;156;27488;-81
2022/12/12 11:04:23;;;;;;;22.37;15.87;;;5.70;91.20;;;;;;901447;156;27730;-81
2022/12/12 11:06:53;;;;;;;25.73;17.07;;;5.70;91.00;;;;;;901325;156;27424;-81
2022/12/12 11:09:22;;;;;;;22.70;16.23;;;5.70;91.00;;;;;;901187;156;28099;-81
2022/12/12 11:12:04;;;;;;;23.77;16.63;;;5.70;91.00;;;;;;900397;156;27454;-81
2022/12/12 11:14:33;;;;;;;22.90;15.63;;;5.70;91.00;;;;;;901265;156;27496;-81
2022/12/12 11:17:00;;;;;;;21.47;16.33;;;5.60;90.90;;;;;;901091;156;27447;-81
2022/12/12 11:19:26;;;;;;;22.13;15.63;;;5.60;90.90;;;;;;900792;155;27420;-81
2022/12/12 11:21:53;;;;;;;20.17;15.43;;;5.60;90.70;;;;;;899910;155;27411;-81
2022/12/12 11:24:19;;;;;;;22.00;16.23;;;5.60;90.50;;;;;;900922;156;27443;-81
2022/12/12 11:26:52;;;;;;;20.70;16.07;;;5.60;90.50;;;;;;900697;156;27428;-81
2022/12/12 11:29:36;;;;;;;21.87;16.33;;;5.60;90.50;;;;;;900358;156;27449;-81
2022/12/12 11:32:03;;;;;;;25.47;16.60;;;5.60;90.60;;;;;;865846;158;27461;-81
2022/12/12 11:34:30;;;;;;;25.83;17.67;;;5.60;90.70;;;;;;895851;157;27423;-81
2022/12/12 11:36:56;;;;;;;24.70;17.67;;;5.60;90.70;;;;;;895936;159;27756;-81
2022/12/12 11:39:23;;;;;;;24.83;17.37;;;5.70;90.80;;;;;;896085;157;27363;-81
2022/12/12 11:42:01;;;;;;;24.17;17.37;;;5.70;90.90;;;;;;915072;155;27383;-81
2022/12/12 11:44:30;;;;;;;24.83;17.17;;;5.70;91.00;;;;;;892220;159;27421;-81
2022/12/12 11:46:57;;;;;;;26.83;17.70;;;5.70;90.90;;;;;;892091;158;27392;-81
2022/12/12 11:49:23;;;;;;;25.40;17.53;;;5.80;90.90;;;;;;890482;159;27478;-81
2022/12/12 11:51:50;;;;;;;25.97;17.90;;;5.80;90.70;;;;;;892438;158;27421;-81
2022/12/12 11:54:20;;;;;;;25.17;16.60;;;5.80;90.70;;;;;;892346;158;27801;-81
2022/12/12 11:57:04;;;;;;;22.90;18.20;;;5.90;90.60;;;;;;892245;159;28174;-81
2022/12/12 12:00:08;;;;;;;25.27;17.70;;;5.90;90.50;;;;;;891329;158;27850;-81
2022/12/12 12:02:57;;;;;;;21.73;16.53;;;5.90;90.50;;;;;;896467;158;27454;-81
2022/12/12 12:05:23;;;;;;;24.03;16.83;;;5.90;90.40;;;;;;896527;159;27512;-81
2022/12/12 12:07:53;;;;;;;22.93;16.90;;;5.90;90.20;;;;;;895629;157;27395;-81
2022/12/12 12:10:47;;;;;;;24.97;17.20;;;6.00;90.20;;;;;;894101;158;27446;-81
2022/12/12 12:13:22;;;;;;;22.33;16.03;;;6.00;90.20;;;;;;895871;157;27390;-81
2022/12/12 12:16:07;;;;;;;21.83;16.07;;;6.00;90.20;;;;;;894958;157;27355;-81
2022/12/12 12:18:39;;;;;;;23.67;17.27;;;6.10;90.00;;;;;;896201;159;27430;-81
2022/12/12 12:21:18;;;;;;;21.10;15.80;;;6.10;89.90;;;;;;875385;161;27526;-81
2022/12/12 12:23:44;;;;;;;23.37;15.83;;;6.20;89.60;;;;;;888095;158;27302;-81
2022/12/12 12:26:11;;;;;;;21.70;15.70;;;6.20;89.90;;;;;;914241;154;27383;-81
2022/12/12 12:28:43;;;;;;;23.63;15.80;;;6.20;88.20;;;;;;913413;154;27453;-81
2022/12/12 12:31:10;;;;;;;23.70;17.53;;;6.20;87.30;;;;;;915072;154;27414;-81
2022/12/12 12:33:55;;;;;;;20.37;15.67;;;6.20;86.80;;;;;;917491;152;27434;-81
2022/12/12 12:36:21;;;;;;;22.83;16.10;;;6.10;86.60;;;;;;920253;153;27308;-82
2022/12/12 12:39:06;;;;;;;27.27;17.27;;;6.00;86.10;;;;;;920356;153;27378;-82
2022/12/12 12:41:41;;;;;;;19.77;14.20;;;6.00;85.70;;;;;;919864;153;27373;-82
2022/12/12 12:44:08;;;;;;;22.13;15.20;;;5.80;86.00;;;;;;918900;153;27508;-82
2022/12/12 12:46:46;;;;;;;21.00;15.03;;;5.70;85.20;;;;;;919537;154;27402;-82
2022/12/12 12:49:13;;;;;;;20.43;15.17;;;5.60;85.00;;;;;;920137;153;27437;-82
2022/12/12 12:51:39;;;;;;;18.70;13.80;;;5.50;85.00;;;;;;918547;153;27446;-82
2022/12/12 12:54:12;;;;;;;21.67;14.50;;;5.40;85.00;;;;;;919296;153;27472;-82
2022/12/12 12:56:38;;;;;;;18.30;13.03;;;5.30;85.00;;;;;;920454;153;27500;-82
2022/12/12 12:59:05;;;;;;;21.23;13.57;;;5.20;85.10;;;;;;920229;153;27382;-82
2022/12/12 13:01:31;;;;;;;17.93;13.17;;;5.10;85.10;;;;;;919741;153;27441;-82